Eurika — LYRZ — position and weather

sailwx.info

Track history (hours):
 
Tides and Currents Weather Stations Pressure Air Temp Water Temp Dewpoint Dewpoint Depression Visibility Wind Speed Wind Dir Waves Ship Positions

Eurika

Last reported at 2014-Dec-16 14:33 UTC. Time now 2014-Dec-19 12:14 UTC.
Position N 40°55' E 009°34'.

Length 79 m; draft 2.4 m.

MMSI: 277335000.

Date/timePositionNaut miles runAvg speedWind from/ knotsBaromVisibWave heightAir tempDewpointWater temp
2014-Dec-16 14:33N 40°55' E 009°34'1 1.5
2014-Dec-16 13:33N 40°56' E 009°32'0 0.0
2014-Dec-16 12:33N 40°56' E 009°32'0 0.0
2014-Dec-15 17:09N 40°56' E 009°32'0 0.0
2014-Dec-15 14:33N 40°56' E 009°32'0 0.0
2014-Dec-15 13:33N 40°56' E 009°32'0 0.0
2014-Dec-15 10:33N 40°56' E 009°32'0 0.0
2014-Dec-15 09:33N 40°56' E 009°32'0 0.0
2014-Dec-15 08:33N 40°56' E 009°32'0 0.0
2014-Dec-15 07:33N 40°56' E 009°32'0 0.0
2014-Dec-15 06:33N 40°56' E 009°32'0 0.0
2014-Dec-15 05:33N 40°56' E 009°32'0 0.0
2014-Dec-15 04:34N 40°56' E 009°32'247 6.3
2014-Dec-13 13:33N 43°18' E 005°00'6 6.4
2014-Dec-13 12:34N 43°23' E 004°55'5 4.2
2014-Dec-13 11:22N 43°23' E 004°49'1 1.5
2014-Dec-13 10:33N 43°23' E 004°47'  
Track history (hours):
 
Tides and Currents Weather Stations Pressure Air Temp Water Temp Dewpoint Dewpoint Depression Visibility Wind Speed Wind Dir Waves Ship Positions

Eurika

Last reported at 2014-Dec-16 14:33 UTC. Time now 2014-Dec-19 12:14 UTC.
Position N 40°55' E 009°34'.

Length 79 m; draft 2.4 m.

MMSI: 277335000.

Date/timePositionNaut miles runAvg speedWind from/ knotsBaromVisibWave heightAir tempDewpointWater temp
2014-Dec-16 14:33N 40°55' E 009°34'1 1.5
2014-Dec-16 13:33N 40°56' E 009°32'0 0.0
2014-Dec-16 12:33N 40°56' E 009°32'0 0.0
2014-Dec-15 17:09N 40°56' E 009°32'0 0.0
2014-Dec-15 14:33N 40°56' E 009°32'0 0.0
2014-Dec-15 13:33N 40°56' E 009°32'0 0.0
2014-Dec-15 10:33N 40°56' E 009°32'0 0.0
2014-Dec-15 09:33N 40°56' E 009°32'0 0.0
2014-Dec-15 08:33N 40°56' E 009°32'0 0.0
2014-Dec-15 07:33N 40°56' E 009°32'0 0.0
2014-Dec-15 06:33N 40°56' E 009°32'0 0.0
2014-Dec-15 05:33N 40°56' E 009°32'0 0.0
2014-Dec-15 04:34N 40°56' E 009°32'247 6.3
2014-Dec-13 13:33N 43°18' E 005°00'6 6.4
2014-Dec-13 12:34N 43°23' E 004°55'5 4.2
2014-Dec-13 11:22N 43°23' E 004°49'1 1.5
2014-Dec-13 10:33N 43°23' E 004°47'  

Dump ship's entire track history